Sidney Richland Municipal Airport
KSDY : now visible

Airfield :











YOU CAN JOIN US ON...

 
LOGIN :

Register | Disclaimer

   EN    FR    IT 

 









Legend :    VFR   Marginal VFR   IFR   Intensive IFR   Very Intensive IFR
Visi :
Ceiling :
>= 8 km
>= 3000ft
5 to 8 km
1000 to 3000 ft
1500m to 5 km
500 to 1000 ft
800 to 1500m
200 to 500 ft
< 800m
< 200 ft
Symbols :   Thunderstorms  Fog  Heavy snow  Heavy precipitations  Wind > 20 kt






- Airport Elevation : 1985 ft


KSDY - Sidney Richland Municipal

CURRENT METAR :
  • 281256Z AUTO 36003KT 10SM CLR 07/01 A2962 RMK AO2 SLP032 T00670006

EXPIRED METARs :
  • 281156Z AUTO 34006KT 10SM CLR 09/01 A2963 RMK AO2 SLP031 T00940011 10117 20072 58013
  • 281056Z AUTO 33004KT 10SM CLR 08/01 A2965 RMK AO2 SLP036 T00780006

TAF KSDY
Valid from the 28 at 12:00 until the 29 at 12:00 UTC


281131Z 2812/2912 VRB06KT P6SM SKC
FM290300 30016G27KT P6SM BKN180
FM290500 31016G30KT P6SM BKN180
KZLC FIR / North America



MET'MAP, your aeronautical weather chart ! - Copyright ORBIFLY December 2007 - Disclaimer

ORBIFLY MET'MAP TEAM :

Programming & Development : Alexandra Zaïnal
Concept & original design : Baudouin d'Aumeries
Assistance for programming : Marc-Olivier Méhu
Technical & hardware support : Manuel Goepfert

Contact : metmap@orbifly.com




SOURCES & CREDITS :

   NOAA       Earth
Advisory